Time;durP1;ratioP1;P1;durP2;ratioP2;P2;SDS_P1;SDS_P2;PMS_P1;PMS_P2;Temp;Humidity;BMP_temperature;BMP_pressure;BME280_temperature;BME280_humidity;BME280_pressure;Samples;Min_cycle;Max_cycle;Signal;HPM_P1;HPM_P2
2021/05/02 00:00:33;;;;;;;227.87;210.27;;;9.30;99.90;;;;;;5028251;28;20884;-80
2021/05/02 00:03:01;;;;;;;232.80;212.90;;;9.30;99.90;;;;;;5029363;28;20443;-80
2021/05/02 00:05:29;;;;;;;236.07;216.90;;;9.20;99.90;;;;;;5031119;28;20472;-80
2021/05/02 00:07:56;;;;;;;246.90;225.83;;;9.30;99.90;;;;;;5031764;28;20417;-80
2021/05/02 00:10:24;;;;;;;401.33;231.10;;;9.30;99.90;;;;;;5033084;28;20490;-81
2021/05/02 00:12:51;;;;;;;375.83;203.38;;;9.30;99.90;;;;;;5034495;28;20200;-80
2021/05/02 00:15:19;;;;;;;246.93;223.93;;;9.30;99.90;;;;;;5034848;28;20219;-80
2021/05/02 00:17:47;;;;;;;437.90;226.60;;;9.30;99.90;;;;;;5034701;28;20422;-80
2021/05/02 00:20:15;;;;;;;256.17;228.50;;;9.30;99.90;;;;;;5035186;28;20223;-80
2021/05/02 00:22:45;;;;;;;444.13;241.63;;;9.20;99.90;;;;;;5034167;28;20592;-80
2021/05/02 00:25:13;;;;;;;432.98;227.75;;;9.30;99.90;;;;;;5031966;28;20224;-80
2021/05/02 00:27:41;;;;;;;194.73;179.70;;;9.20;99.90;;;;;;5029205;28;20212;-80
2021/05/02 00:30:08;;;;;;;417.48;248.70;;;9.20;99.90;;;;;;5029430;28;20513;-80
2021/05/02 00:32:35;;;;;;;222.57;204.40;;;9.20;99.90;;;;;;5029347;28;20215;-80
2021/05/02 00:35:03;;;;;;;236.17;216.87;;;9.20;99.90;;;;;;5029782;28;20493;-81
2021/05/02 00:37:30;;;;;;;251.70;228.53;;;9.20;99.90;;;;;;5033365;28;20443;-80
2021/05/02 00:39:56;;;;;;;232.67;212.67;;;9.00;99.90;;;;;;5032393;28;20486;-81
2021/05/02 00:42:25;;;;;;;235.67;214.10;;;9.00;99.90;;;;;;5028068;28;20421;-81
2021/05/02 00:45:01;;;;;;;235.55;211.88;;;9.10;99.90;;;;;;5027492;28;20472;-81
2021/05/02 00:47:33;;;;;;;234.57;211.50;;;9.00;99.90;;;;;;5027293;28;20184;-80
2021/05/02 00:50:07;;;;;;;221.37;202.87;;;9.10;99.90;;;;;;5026950;28;20469;-80
2021/05/02 00:52:37;;;;;;;242.17;218.23;;;9.10;99.90;;;;;;5027608;28;20410;-80
2021/05/02 00:55:06;;;;;;;255.10;230.13;;;9.10;99.90;;;;;;5032658;28;20454;-80
2021/05/02 00:57:43;;;;;;;251.50;216.75;;;9.10;99.90;;;;;;5029837;28;20443;-81
2021/05/02 01:00:12;;;;;;;253.70;216.37;;;9.20;99.90;;;;;;5028953;28;20667;-80
2021/05/02 01:02:41;;;;;;;288.58;209.60;;;9.10;99.90;;;;;;5029410;28;20454;-81
2021/05/02 01:05:09;;;;;;;333.17;222.88;;;9.10;99.90;;;;;;5027095;28;20232;-82
2021/05/02 01:07:37;;;;;;;248.83;222.57;;;9.10;99.90;;;;;;5029341;28;20193;-81
2021/05/02 01:10:08;;;;;;;255.88;219.40;;;9.00;99.90;;;;;;5027701;28;20972;-81
2021/05/02 01:12:39;;;;;;;269.33;214.77;;;8.90;99.90;;;;;;5028478;28;20189;-81
2021/05/02 01:15:06;;;;;;;388.23;199.75;;;8.70;99.90;;;;;;5028205;28;20601;-82
2021/05/02 01:17:38;;;;;;;457.05;211.40;;;8.80;99.90;;;;;;5027690;28;20211;-81
2021/05/02 01:20:05;;;;;;;291.52;213.48;;;8.80;99.90;;;;;;5027135;28;20231;-81
2021/05/02 01:22:36;;;;;;;323.25;199.23;;;8.80;99.90;;;;;;5027185;28;20204;-81
2021/05/02 01:25:05;;;;;;;390.30;204.43;;;8.80;99.90;;;;;;5027002;28;20251;-81
2021/05/02 01:27:32;;;;;;;354.90;193.45;;;8.90;99.90;;;;;;5027712;28;20211;-82
2021/05/02 01:29:59;;;;;;;353.60;216.88;;;8.90;99.90;;;;;;5027506;28;20231;-81
2021/05/02 01:32:27;;;;;;;346.08;211.93;;;9.00;99.90;;;;;;5026289;28;20566;-82
2021/05/02 01:34:54;;;;;;;347.20;216.25;;;9.00;99.90;;;;;;5026810;28;20251;-81
2021/05/02 01:37:20;;;;;;;255.30;212.38;;;8.80;99.90;;;;;;5027183;28;20208;-81
2021/05/02 01:39:47;;;;;;;298.80;209.80;;;8.80;99.90;;;;;;5027218;28;20249;-81
2021/05/02 01:42:14;;;;;;;321.73;196.30;;;8.40;99.90;;;;;;5027021;28;20208;-80
2021/05/02 01:44:41;;;;;;;406.02;178.30;;;8.60;99.90;;;;;;5025900;28;20235;-81
2021/05/02 01:47:10;;;;;;;416.38;157.70;;;8.60;99.90;;;;;;5026973;28;20208;-80
2021/05/02 01:49:42;;;;;;;449.08;207.23;;;8.50;99.90;;;;;;5026838;28;20205;-80
2021/05/02 01:52:09;;;;;;;374.25;193.88;;;8.50;99.90;;;;;;5028066;28;20200;-81
2021/05/02 01:54:37;;;;;;;422.73;158.98;;;8.50;99.90;;;;;;5026998;28;20236;-81
2021/05/02 01:57:04;;;;;;;354.45;200.55;;;8.50;99.90;;;;;;5026886;28;20223;-81
2021/05/02 01:59:31;;;;;;;182.97;168.73;;;8.50;99.90;;;;;;5026590;28;20224;-80
2021/05/02 02:01:57;;;;;;;207.40;190.07;;;8.60;99.90;;;;;;5029737;28;20447;-81
2021/05/02 02:04:29;;;;;;;194.13;178.33;;;8.60;99.90;;;;;;5030778;28;20463;-81
2021/05/02 02:06:57;;;;;;;184.13;169.77;;;8.60;99.90;;;;;;5035464;28;20441;-81
2021/05/02 02:09:24;;;;;;;347.13;219.93;;;8.60;99.90;;;;;;5038559;28;20418;-80
2021/05/02 02:11:52;;;;;;;182.37;167.63;;;8.80;99.90;;;;;;5039351;28;20208;-80
2021/05/02 02:14:18;;;;;;;204.23;186.07;;;8.80;99.90;;;;;;5033268;28;20438;-81
2021/05/02 02:16:45;;;;;;;406.63;220.75;;;8.80;99.90;;;;;;5030594;28;20200;-80
2021/05/02 02:19:12;;;;;;;214.57;196.40;;;8.80;99.90;;;;;;5028955;28;20283;-80
2021/05/02 02:21:39;;;;;;;346.95;173.60;;;8.70;99.90;;;;;;5029611;28;20418;-80
2021/05/02 02:24:06;;;;;;;427.45;220.05;;;8.70;99.90;;;;;;5029306;28;20253;-81
2021/05/02 02:26:40;;;;;;;444.02;182.23;;;8.70;99.90;;;;;;5028200;28;20204;-80
2021/05/02 02:29:08;;;;;;;442.25;223.77;;;8.70;99.90;;;;;;5028668;28;20192;-80
2021/05/02 02:31:35;;;;;;;263.63;205.55;;;8.80;99.90;;;;;;5026218;28;20239;-80
2021/05/02 02:34:05;;;;;;;414.08;157.23;;;8.80;99.90;;;;;;5026514;28;20231;-80
2021/05/02 02:36:33;;;;;;;408.30;142.82;;;8.80;99.90;;;;;;5028268;28;20200;-80
2021/05/02 02:39:00;;;;;;;417.17;151.63;;;8.70;99.90;;;;;;5026720;28;20208;-80
2021/05/02 02:41:28;;;;;;;273.70;201.35;;;8.70;99.90;;;;;;5027027;28;20208;-80
2021/05/02 02:43:56;;;;;;;308.63;209.40;;;8.60;99.90;;;;;;5026700;28;20224;-80
2021/05/02 02:46:23;;;;;;;411.55;156.07;;;8.50;99.90;;;;;;5028926;28;20196;-80
2021/05/02 02:48:53;;;;;;;402.45;138.20;;;8.50;99.90;;;;;;5036021;28;20203;-80
2021/05/02 02:51:21;;;;;;;413.52;150.45;;;8.60;99.90;;;;;;5033876;28;20200;-80
2021/05/02 02:53:50;;;;;;;414.90;148.48;;;8.60;99.90;;;;;;5031889;28;20251;-81
2021/05/02 02:56:19;;;;;;;377.50;226.27;;;8.60;99.90;;;;;;5029949;28;20205;-81
2021/05/02 02:58:52;;;;;;;329.17;190.93;;;8.70;99.90;;;;;;5030381;28;20218;-81
2021/05/02 03:01:18;;;;;;;227.63;204.82;;;8.70;99.90;;;;;;5028855;28;20219;-81
2021/05/02 03:03:45;;;;;;;230.52;206.48;;;8.70;99.90;;;;;;5028932;28;20228;-80
2021/05/02 03:06:12;;;;;;;233.35;208.25;;;8.70;99.90;;;;;;5029170;28;20239;-81
2021/05/02 03:08:41;;;;;;;224.23;201.77;;;8.70;99.90;;;;;;5029210;28;20208;-80
2021/05/02 03:11:08;;;;;;;230.55;205.65;;;8.70;99.90;;;;;;5029056;28;20458;-80
2021/05/02 03:13:35;;;;;;;367.88;165.40;;;8.90;99.90;;;;;;5028565;28;20212;-80
2021/05/02 03:16:02;;;;;;;400.63;136.15;;;8.70;99.90;;;;;;5035284;28;20682;-79
2021/05/02 03:18:33;;;;;;;392.02;177.73;;;8.60;99.90;;;;;;5035663;28;20208;-80
2021/05/02 03:21:06;;;;;;;83.90;77.10;;;8.60;99.90;;;;;;5037167;28;20216;-80
2021/05/02 03:23:33;;;;;;;168.83;155.87;;;8.50;99.90;;;;;;5035560;28;20438;-80
2021/05/02 03:26:05;;;;;;;217.20;196.77;;;8.50;99.90;;;;;;5035560;28;20429;-81
2021/05/02 03:28:35;;;;;;;407.17;155.98;;;8.40;99.90;;;;;;5034244;28;20208;-80
2021/05/02 03:31:04;;;;;;;49.97;26.77;;;8.30;99.90;;;;;;5031553;28;20559;-80
2021/05/02 03:33:34;;;;;;;43.50;28.20;;;7.90;99.90;;;;;;5029954;28;20521;-81
2021/05/02 03:36:06;;;;;;;41.20;26.40;;;8.30;99.90;;;;;;5031543;28;20427;-80
2021/05/02 03:38:43;;;;;;;43.33;27.97;;;8.40;99.90;;;;;;5030865;28;20431;-80
2021/05/02 03:41:10;;;;;;;48.23;29.23;;;8.40;99.90;;;;;;5031849;28;20452;-80
2021/05/02 03:43:37;;;;;;;53.93;27.90;;;8.60;99.90;;;;;;5030794;28;20479;-81
2021/05/02 03:46:03;;;;;;;43.40;25.33;;;8.50;99.90;;;;;;5030852;28;20454;-81
2021/05/02 03:48:29;;;;;;;46.93;28.70;;;8.60;99.90;;;;;;5029633;28;20410;-81
2021/05/02 03:50:56;;;;;;;46.03;27.17;;;8.50;99.90;;;;;;5028648;28;20970;-81
2021/05/02 03:53:22;;;;;;;54.60;35.23;;;8.10;99.90;;;;;;5029258;28;20451;-80
2021/05/02 03:55:48;;;;;;;48.00;28.23;;;8.40;99.90;;;;;;5029413;28;20958;-81
2021/05/02 03:58:16;;;;;;;45.00;27.00;;;8.40;99.90;;;;;;5029280;28;20212;-81
2021/05/02 04:00:43;;;;;;;47.07;30.07;;;8.90;99.90;;;;;;5028677;28;20483;-81
2021/05/02 04:03:09;;;;;;;48.00;28.27;;;8.50;99.90;;;;;;5028274;28;20856;-81
2021/05/02 04:05:35;;;;;;;45.80;29.53;;;8.40;99.90;;;;;;5028695;28;20485;-80
2021/05/02 04:08:01;;;;;;;44.70;26.90;;;8.60;99.90;;;;;;5027810;28;20414;-81
2021/05/02 04:10:27;;;;;;;48.73;26.97;;;8.70;99.90;;;;;;5027666;28;20454;-81
2021/05/02 04:12:54;;;;;;;40.20;24.93;;;8.50;99.90;;;;;;5028579;28;20429;-81
2021/05/02 04:15:21;;;;;;;44.50;27.60;;;8.60;99.90;;;;;;5028344;28;20831;-81
2021/05/02 04:17:47;;;;;;;46.67;26.90;;;8.60;99.90;;;;;;5028263;28;20429;-80
2021/05/02 04:20:14;;;;;;;53.13;28.97;;;8.60;99.90;;;;;;5028706;28;20896;-81
2021/05/02 04:22:41;;;;;;;50.97;28.80;;;;;;;;;;5027783;28;20454;-81
2021/05/02 04:25:08;;;;;;;45.90;27.37;;;8.80;99.90;;;;;;5028003;28;20503;-81
2021/05/02 04:27:34;;;;;;;47.17;25.90;;;8.50;99.90;;;;;;5027963;28;20443;-81
2021/05/02 04:30:00;;;;;;;45.67;26.23;;;8.50;99.90;;;;;;5028439;28;20434;-81
2021/05/02 04:32:27;;;;;;;45.80;28.10;;;8.50;99.90;;;;;;5028217;28;20546;-81
2021/05/02 04:34:53;;;;;;;51.07;28.47;;;8.90;99.90;;;;;;5028260;28;20467;-81
2021/05/02 04:37:19;;;;;;;43.00;24.63;;;8.60;99.90;;;;;;5027649;28;20958;-80
2021/05/02 04:39:46;;;;;;;447.65;203.88;;;8.60;99.90;;;;;;5027286;28;20474;-81
2021/05/02 04:42:12;;;;;;;476.05;321.67;;;8.60;99.90;;;;;;5027287;28;20442;-81
2021/05/02 04:44:38;;;;;;;464.58;233.95;;;8.50;99.90;;;;;;5027636;28;20303;-80
2021/05/02 04:47:05;;;;;;;454.65;202.40;;;8.40;99.90;;;;;;5027134;28;20212;-81
2021/05/02 04:49:32;;;;;;;448.92;182.27;;;8.50;99.90;;;;;;5028956;28;20219;-81
2021/05/02 04:51:58;;;;;;;443.73;181.15;;;8.50;99.90;;;;;;5028783;28;20204;-81
2021/05/02 04:54:24;;;;;;;446.35;187.70;;;8.40;99.90;;;;;;5028369;28;20256;-81
2021/05/02 04:56:50;;;;;;;122.83;113.63;;;8.40;99.90;;;;;;5028852;28;20215;-80
2021/05/02 04:59:16;;;;;;;455.63;217.57;;;8.50;99.90;;;;;;5028338;28;20431;-81
2021/05/02 05:01:44;;;;;;;455.35;203.90;;;8.40;99.90;;;;;;5028945;28;20204;-81
2021/05/02 05:04:10;;;;;;;445.98;187.90;;;8.50;99.90;;;;;;5027815;28;20220;-80
2021/05/02 05:06:37;;;;;;;444.30;185.60;;;8.50;99.90;;;;;;5027668;28;20273;-80
2021/05/02 05:09:05;;;;;;;440.02;169.32;;;8.40;99.90;;;;;;5026348;28;20257;-80
2021/05/02 05:11:32;;;;;;;435.67;169.93;;;8.70;99.90;;;;;;5027251;28;20201;-81
2021/05/02 05:13:58;;;;;;;441.83;171.07;;;8.60;99.90;;;;;;5029908;28;20223;-80
2021/05/02 05:16:24;;;;;;;395.27;198.90;;;8.60;99.90;;;;;;5031493;28;20201;-82
2021/05/02 05:18:50;;;;;;;42.17;24.80;;;8.50;99.90;;;;;;5027660;28;20208;-81
2021/05/02 05:21:16;;;;;;;44.77;26.67;;;8.50;99.90;;;;;;5027880;28;20479;-80
2021/05/02 05:23:43;;;;;;;45.20;24.50;;;8.40;99.90;;;;;;5028100;28;20463;-80
2021/05/02 05:26:09;;;;;;;51.30;26.97;;;8.40;99.90;;;;;;5028046;28;20439;-80
2021/05/02 05:28:35;;;;;;;44.73;25.47;;;8.40;99.90;;;;;;5030754;28;20444;-80
2021/05/02 05:31:01;;;;;;;39.07;22.33;;;8.60;99.90;;;;;;5033297;28;20415;-81
2021/05/02 05:33:29;;;;;;;44.20;26.27;;;8.50;99.90;;;;;;5029513;28;20447;-80
2021/05/02 05:35:55;;;;;;;45.50;27.45;;;8.60;99.90;;;;;;5030523;28;20336;-81
2021/05/02 05:38:22;;;;;;;36.20;24.23;;;8.80;99.90;;;;;;5031594;28;20200;-80
2021/05/02 05:40:48;;;;;;;34.23;21.00;;;8.80;99.90;;;;;;5031167;28;20483;-80
2021/05/02 05:43:15;;;;;;;38.50;22.97;;;;;;;;;;5031198;28;20493;-81
2021/05/02 05:45:41;;;;;;;42.30;23.90;;;8.70;99.90;;;;;;5030803;28;20454;-81
2021/05/02 05:48:08;;;;;;;41.60;26.73;;;8.70;99.90;;;;;;5032056;28;20431;-80
2021/05/02 05:50:34;;;;;;;39.03;23.77;;;8.50;99.90;;;;;;5038834;28;20443;-81
2021/05/02 05:53:00;;;;;;;40.93;22.77;;;8.50;99.90;;;;;;5039973;28;20803;-82
2021/05/02 05:55:26;;;;;;;42.37;24.47;;;8.50;99.90;;;;;;5038546;28;20464;-81
2021/05/02 05:57:53;;;;;;;37.43;21.60;;;8.50;99.90;;;;;;5036641;28;20458;-81
2021/05/02 06:00:21;;;;;;;36.23;24.80;;;8.60;99.90;;;;;;5031535;28;20487;-80
2021/05/02 06:02:47;;;;;;;35.22;23.08;;;8.60;99.90;;;;;;5031019;28;20443;-81
2021/05/02 06:05:14;;;;;;;38.30;23.00;;;8.40;99.90;;;;;;5030946;28;20227;-81
2021/05/02 06:07:41;;;;;;;46.00;24.20;;;8.50;99.90;;;;;;5031637;28;20413;-81
2021/05/02 06:10:11;;;;;;;37.87;21.67;;;8.50;99.90;;;;;;5031398;28;20450;-81
2021/05/02 06:12:37;;;;;;;41.63;23.23;;;8.70;99.90;;;;;;5030714;28;20454;-81
2021/05/02 06:15:06;;;;;;;35.03;23.70;;;8.70;99.90;;;;;;5030847;28;20462;-81
2021/05/02 06:17:32;;;;;;;32.33;22.63;;;8.70;99.90;;;;;;5030941;28;20447;-80
2021/05/02 06:19:58;;;;;;;36.33;23.20;;;8.60;99.90;;;;;;5033352;28;20470;-80
2021/05/02 06:22:24;;;;;;;37.23;23.10;;;8.50;99.90;;;;;;5037803;28;20447;-81
2021/05/02 06:24:50;;;;;;;33.70;24.23;;;8.40;99.90;;;;;;5039089;28;20471;-81
2021/05/02 06:27:17;;;;;;;32.03;21.40;;;8.50;99.90;;;;;;5039637;28;20470;-80
2021/05/02 06:29:43;;;;;;;47.37;42.70;;;8.60;99.90;;;;;;5038682;28;20211;-81
2021/05/02 06:32:10;;;;;;;34.97;27.20;;;8.70;99.90;;;;;;5035385;28;20480;-81
2021/05/02 06:34:36;;;;;;;46.37;41.90;;;8.60;99.90;;;;;;5033042;28;20466;-81
2021/05/02 06:37:02;;;;;;;58.97;54.43;;;8.70;99.90;;;;;;5031624;28;20453;-81
2021/05/02 06:39:28;;;;;;;65.63;60.47;;;8.90;99.90;;;;;;5030519;28;20451;-81
2021/05/02 06:41:55;;;;;;;91.70;85.47;;;9.10;99.90;;;;;;5029443;28;20432;-79
2021/05/02 06:44:21;;;;;;;43.23;38.60;;;8.60;99.90;;;;;;5029626;28;20529;-79
2021/05/02 06:46:47;;;;;;;33.17;23.50;;;8.80;99.90;;;;;;5028098;28;20451;-80
2021/05/02 06:49:14;;;;;;;30.65;24.02;;;9.30;99.90;;;;;;5027435;28;20435;-80
2021/05/02 06:51:41;;;;;;;438.40;202.63;;;8.90;99.90;;;;;;5029411;28;20204;-79
2021/05/02 06:54:08;;;;;;;395.77;199.63;;;;;;;;;;5028040;28;20282;-80
2021/05/02 06:56:35;;;;;;;33.60;25.90;;;9.50;99.90;;;;;;5028723;28;20200;-79
2021/05/02 06:59:01;;;;;;;230.82;209.88;;;9.40;99.90;;;;;;5028173;28;20537;-80
2021/05/02 07:01:27;;;;;;;32.23;20.60;;;9.10;99.90;;;;;;5027640;28;20228;-79
2021/05/02 07:03:53;;;;;;;35.13;22.83;;;9.50;99.90;;;;;;5028511;28;20453;-79
2021/05/02 07:06:20;;;;;;;32.33;19.33;;;9.50;99.90;;;;;;5028176;28;20430;-79
2021/05/02 07:08:46;;;;;;;33.77;23.53;;;9.50;99.90;;;;;;5026541;28;20920;-79
2021/05/02 07:11:12;;;;;;;28.40;21.80;;;9.30;99.90;;;;;;5026047;28;20443;-79
2021/05/02 07:13:38;;;;;;;33.53;24.80;;;9.40;99.90;;;;;;5034644;28;20825;-80
2021/05/02 07:16:05;;;;;;;275.48;235.50;;;9.30;99.90;;;;;;5032438;28;20449;-79
2021/05/02 07:18:35;;;;;;;239.35;208.82;;;9.20;99.90;;;;;;5030478;28;20224;-79
2021/05/02 07:21:03;;;;;;;246.27;206.63;;;9.20;99.90;;;;;;5034123;28;20274;-79
2021/05/02 07:23:30;;;;;;;295.15;218.07;;;9.40;99.90;;;;;;5033060;28;20418;-79
2021/05/02 07:25:56;;;;;;;265.75;196.20;;;9.30;99.90;;;;;;5033871;28;20208;-79
2021/05/02 07:28:23;;;;;;;29.30;23.20;;;9.10;99.90;;;;;;5033813;28;20208;-79
2021/05/02 07:30:49;;;;;;;32.20;22.53;;;9.30;99.90;;;;;;5031443;28;20498;-79
2021/05/02 07:33:15;;;;;;;286.15;220.48;;;9.10;99.90;;;;;;5032991;28;20455;-79
2021/05/02 07:35:41;;;;;;;256.27;209.02;;;9.10;99.90;;;;;;5032813;28;20208;-79
2021/05/02 07:38:08;;;;;;;35.13;26.13;;;9.20;99.90;;;;;;5033145;28;20204;-79
2021/05/02 07:40:35;;;;;;;255.85;200.02;;;9.10;99.90;;;;;;5033051;28;20483;-79
2021/05/02 07:43:01;;;;;;;246.57;190.48;;;9.30;99.90;;;;;;5032697;28;20204;-79
2021/05/02 07:45:28;;;;;;;256.50;217.18;;;9.20;99.90;;;;;;5034276;28;20224;-79
2021/05/02 07:47:54;;;;;;;58.40;53.67;;;9.20;99.90;;;;;;5034700;28;20200;-79
2021/05/02 07:50:20;;;;;;;34.83;21.27;;;9.20;99.90;;;;;;5035128;28;20418;-79
2021/05/02 07:52:46;;;;;;;259.05;214.13;;;9.20;99.90;;;;;;5035272;28;20447;-79
2021/05/02 07:55:13;;;;;;;254.40;211.85;;;9.20;99.90;;;;;;5034703;28;20255;-79
2021/05/02 07:57:39;;;;;;;270.25;226.18;;;9.20;99.90;;;;;;5030486;28;20208;-79
2021/05/02 08:00:07;;;;;;;30.13;24.83;;;9.40;99.90;;;;;;5033500;28;20220;-79
2021/05/02 08:02:33;;;;;;;37.43;22.63;;;9.40;99.90;;;;;;5033626;28;20473;-79
2021/05/02 08:04:59;;;;;;;53.60;49.20;;;9.40;99.90;;;;;;5032798;28;20478;-80
2021/05/02 08:07:25;;;;;;;27.73;22.67;;;9.20;99.90;;;;;;5032169;28;20462;-80
2021/05/02 08:09:51;;;;;;;28.57;21.97;;;9.30;99.90;;;;;;5035940;28;20444;-81
2021/05/02 08:12:18;;;;;;;243.45;210.82;;;9.10;99.90;;;;;;5035195;28;20518;-80
2021/05/02 08:14:45;;;;;;;29.50;24.30;;;9.10;99.90;;;;;;5035236;28;20216;-81
2021/05/02 08:17:11;;;;;;;48.20;44.00;;;9.10;99.90;;;;;;5036300;28;20467;-80
2021/05/02 08:19:37;;;;;;;32.80;25.47;;;8.90;99.90;;;;;;5033650;28;20447;-80
2021/05/02 08:22:04;;;;;;;28.10;22.27;;;9.00;99.90;;;;;;5030427;28;20470;-80
2021/05/02 08:24:30;;;;;;;232.57;195.23;;;9.10;99.90;;;;;;5031659;28;20467;-80
2021/05/02 08:26:57;;;;;;;32.47;23.60;;;9.10;99.90;;;;;;5029319;28;20235;-79
2021/05/02 08:29:23;;;;;;;39.23;35.53;;;9.10;99.90;;;;;;5028583;28;20448;-80
2021/05/02 08:31:50;;;;;;;34.80;24.50;;;9.00;99.90;;;;;;5027869;28;20447;-79
2021/05/02 08:34:16;;;;;;;35.23;24.73;;;8.90;99.90;;;;;;5027696;28;20471;-80
2021/05/02 08:36:42;;;;;;;36.53;28.60;;;8.80;99.90;;;;;;5028742;28;20448;-81
2021/05/02 08:39:08;;;;;;;38.63;34.67;;;8.70;99.90;;;;;;5029622;28;20451;-80
2021/05/02 08:41:34;;;;;;;38.30;23.10;;;8.70;99.90;;;;;;5028764;28;20480;-81
2021/05/02 08:44:02;;;;;;;37.80;34.00;;;8.90;99.90;;;;;;5027742;28;20510;-80
2021/05/02 08:46:29;;;;;;;52.93;48.53;;;8.70;99.90;;;;;;5028461;28;20448;-80
2021/05/02 08:48:56;;;;;;;44.40;40.10;;;8.90;99.90;;;;;;5029413;28;20451;-80
2021/05/02 08:51:23;;;;;;;70.87;65.47;;;9.30;99.90;;;;;;5035405;28;20427;-80
2021/05/02 08:53:49;;;;;;;38.97;34.73;;;9.00;99.90;;;;;;5030041;28;20459;-80
2021/05/02 08:56:16;;;;;;;32.53;24.83;;;9.10;99.90;;;;;;5021677;28;20447;-80
2021/05/02 08:58:42;;;;;;;40.27;31.60;;;9.20;99.90;;;;;;5021945;28;20482;-81
2021/05/02 09:01:08;;;;;;;278.20;202.98;;;9.10;99.90;;;;;;5023162;28;20483;-81
2021/05/02 09:03:39;;;;;;;44.07;36.43;;;9.40;99.90;;;;;;5022734;28;20207;-81
2021/05/02 09:06:15;;;;;;;41.33;36.87;;;9.20;99.90;;;;;;5103213;22;20988;-85
2021/05/02 09:08:41;;;;;;;72.27;66.57;;;9.10;99.90;;;;;;5053142;28;20406;-85
2021/05/02 09:11:08;;;;;;;142.73;132.50;;;9.10;99.90;;;;;;5054562;28;20413;-85
2021/05/02 09:13:34;;;;;;;40.80;36.50;;;9.10;99.90;;;;;;5046221;28;20469;-85
2021/05/02 09:16:02;;;;;;;70.17;64.10;;;9.20;99.90;;;;;;5044280;28;20463;-84
2021/05/02 09:18:35;;;;;;;111.63;103.80;;;9.10;99.90;;;;;;5043525;28;20454;-85
2021/05/02 09:21:02;;;;;;;39.37;35.17;;;9.20;99.90;;;;;;5044007;28;20492;-85
2021/05/02 09:23:36;;;;;;;40.33;26.30;;;9.10;99.90;;;;;;5059590;28;20422;-85
2021/05/02 09:26:04;;;;;;;40.70;35.67;;;9.20;99.90;;;;;;5059063;28;20861;-84
2021/05/02 09:28:52;;;;;;;41.37;29.20;;;9.10;99.90;;;;;;5044011;28;20450;-83
2021/05/02 09:31:20;;;;;;;51.50;47.03;;;9.20;99.90;;;;;;5038457;28;20446;-86
2021/05/02 09:33:48;;;;;;;48.07;43.37;;;9.30;99.90;;;;;;5044958;28;20446;-84
2021/05/02 09:36:15;;;;;;;33.30;29.30;;;8.70;99.90;;;;;;5042876;28;20491;-85
2021/05/02 09:38:43;;;;;;;59.53;53.97;;;9.20;99.90;;;;;;5044005;28;20417;-84
2021/05/02 09:41:11;;;;;;;44.17;39.40;;;9.30;99.90;;;;;;5044099;28;20477;-85
2021/05/02 09:43:40;;;;;;;114.57;106.37;;;9.30;99.90;;;;;;5043758;28;20481;-85
2021/05/02 09:46:23;;;;;;;51.47;46.30;;;9.20;99.90;;;;;;5044479;28;20437;-85
2021/05/02 09:48:50;;;;;;;74.27;68.47;;;;;;;;;;5055216;28;20422;-84
2021/05/02 09:51:17;;;;;;;68.20;62.63;;;;;;;;;;5061320;28;20442;-86
2021/05/02 09:54:03;;;;;;;106.23;98.53;;;9.30;99.90;;;;;;5061899;28;20446;-85
2021/05/02 09:56:35;;;;;;;147.27;136.20;;;9.60;99.90;;;;;;5060866;28;20442;-84
2021/05/02 09:59:02;;;;;;;64.97;58.97;;;9.80;99.90;;;;;;5061626;28;20408;-86
2021/05/02 10:01:29;;;;;;;82.40;75.80;;;;;;;;;;5061746;28;20470;-86
2021/05/02 10:03:56;;;;;;;67.43;61.80;;;9.90;99.90;;;;;;5060499;28;21416;-86
2021/05/02 10:06:34;;;;;;;65.77;60.40;;;9.90;99.90;;;;;;5061078;28;20474;-85
2021/05/02 10:09:06;;;;;;;84.70;78.00;;;9.90;99.90;;;;;;5057224;28;20833;-86
2021/05/02 10:11:33;;;;;;;86.30;79.77;;;9.80;99.90;;;;;;5054329;28;20434;-85
2021/05/02 10:14:02;;;;;;;78.97;72.90;;;10.20;99.90;;;;;;5056596;28;20525;-84
2021/05/02 10:16:29;;;;;;;104.47;97.30;;;10.00;99.90;;;;;;5053602;28;20488;-86
2021/05/02 10:18:55;;;;;;;62.67;57.50;;;10.10;99.90;;;;;;5047792;28;20435;-85
2021/05/02 10:21:22;;;;;;;135.10;123.77;;;9.80;99.90;;;;;;5047558;28;20497;-86
2021/05/02 10:23:49;;;;;;;107.33;99.23;;;10.00;99.90;;;;;;5048976;28;20458;-83
2021/05/02 10:26:16;;;;;;;42.23;37.53;;;10.00;99.90;;;;;;5058156;28;20455;-86
2021/05/02 10:28:46;;;;;;;62.17;57.20;;;10.00;99.90;;;;;;5057617;28;20438;-84
2021/05/02 10:31:15;;;;;;;43.53;38.83;;;;;;;;;;5049326;28;20443;-86
2021/05/02 10:33:42;;;;;;;47.03;42.53;;;10.00;99.90;;;;;;5045388;28;20458;-85
2021/05/02 10:36:10;;;;;;;44.00;39.70;;;9.90;99.90;;;;;;5044859;28;20477;-83
2021/05/02 10:38:48;;;;;;;65.90;60.77;;;10.40;99.90;;;;;;5044842;28;20450;-84
2021/05/02 10:41:23;;;;;;;68.13;62.53;;;10.40;99.90;;;;;;5044339;28;20482;-84
2021/05/02 10:43:50;;;;;;;372.38;245.20;;;10.60;99.90;;;;;;5044728;28;20423;-85
2021/05/02 10:46:50;;;;;;;393.05;146.45;;;10.60;99.90;;;;;;5047973;28;20254;-85
2021/05/02 10:49:55;;;;;;;397.95;178.50;;;10.70;99.90;;;;;;5052003;28;20222;-85
2021/05/02 10:52:36;;;;;;;231.50;213.37;;;;;;;;;;5041061;28;20597;-85
2021/05/02 10:55:14;;;;;;;308.33;221.07;;;10.60;99.90;;;;;;5046326;28;20451;-86
2021/05/02 10:57:45;;;;;;;409.20;161.98;;;;;;;;;;5046196;28;20450;-86
2021/05/02 11:00:12;;;;;;;394.67;155.77;;;;;;;;;;5046271;28;20223;-86
2021/05/02 11:02:45;;;;;;;396.33;161.75;;;10.70;99.90;;;;;;5044713;28;20222;-84
2021/05/02 11:05:24;;;;;;;402.00;199.60;;;;;;;;;;5049561;28;20227;-84
2021/05/02 11:08:12;;;;;;;;;;;;;;;;;;;;;
2021/05/02 11:10:51;;;;;;;395.15;175.38;;;10.80;99.90;;;;;;5052652;28;20445;-85
2021/05/02 11:13:29;;;;;;;431.17;294.15;;;;;;;;;;5050662;28;20445;-84
2021/05/02 11:15:56;;;;;;;414.30;240.20;;;;;;;;;;5051725;28;20227;-84
2021/05/02 11:18:24;;;;;;;435.80;253.25;;;;;;;;;;5046973;28;20221;-83
2021/05/02 11:20:51;;;;;;;421.17;240.80;;;;;;;;;;5045953;28;20223;-83
2021/05/02 11:23:19;;;;;;;414.00;189.75;;;;;;;;;;5049151;28;20203;-83
2021/05/02 11:26:01;;;;;;;397.97;244.00;;;;;;;;;;5055971;28;20223;-85
2021/05/02 11:29:06;;;;;;;415.10;180.63;;;11.00;99.90;;;;;;5053683;28;20473;-86
2021/05/02 11:32:05;;;;;;;445.05;235.30;;;;;;;;;;4999897;28;20821;-88
2021/05/02 11:34:58;;;;;;;429.83;210.23;;;10.60;99.90;;;;;;5048617;28;20339;-84
2021/05/02 11:37:40;;;;;;;424.17;204.07;;;;;;;;;;5049856;28;20204;-86
2021/05/02 11:40:42;;;;;;;439.30;216.05;;;11.00;99.90;;;;;;5045704;28;20219;-85
2021/05/02 11:43:16;;;;;;;567.67;520.22;;;11.10;99.90;;;;;;5043605;28;25092;-83
2021/05/02 11:45:48;;;;;;;374.13;334.33;;;10.90;99.90;;;;;;5048324;28;20725;-85
2021/05/02 11:48:23;;;;;;;337.47;293.70;;;10.90;99.90;;;;;;5046448;28;20456;-85
2021/05/02 11:50:55;;;;;;;350.40;293.70;;;10.70;99.90;;;;;;5046582;28;20921;-86
2021/05/02 11:53:39;;;;;;;342.97;263.60;;;10.60;99.90;;;;;;5046510;28;20811;-84
2021/05/02 11:56:17;;;;;;;434.17;235.77;;;10.70;99.90;;;;;;5046921;28;20462;-85
2021/05/02 11:58:44;;;;;;;435.27;235.60;;;10.90;99.90;;;;;;5054451;28;20215;-84
2021/05/02 12:01:27;;;;;;;434.00;222.10;;;10.90;99.90;;;;;;5055346;28;20216;-85
2021/05/02 12:04:01;;;;;;;266.30;246.37;;;11.10;99.90;;;;;;5047269;28;20203;-85
2021/05/02 12:06:29;;;;;;;374.73;239.77;;;11.20;99.90;;;;;;5045668;28;21164;-84
2021/05/02 12:08:56;;;;;;;411.93;248.83;;;;;;;;;;5046896;28;20443;-85
2021/05/02 12:11:25;;;;;;;411.93;246.93;;;11.00;99.90;;;;;;5048487;28;20505;-84
2021/05/02 12:13:54;;;;;;;286.63;258.27;;;11.20;99.90;;;;;;5050387;28;20454;-85
2021/05/02 12:16:22;;;;;;;276.50;253.07;;;11.20;99.90;;;;;;5046648;28;20478;-86
2021/05/02 12:19:09;;;;;;;293.07;270.03;;;11.20;99.90;;;;;;5046780;28;20442;-85
2021/05/02 12:21:46;;;;;;;379.90;270.07;;;11.20;99.90;;;;;;5055356;28;20474;-84
2021/05/02 12:24:14;;;;;;;388.70;276.97;;;;;;;;;;5052242;28;20447;-86
2021/05/02 12:26:45;;;;;;;294.23;266.13;;;11.00;99.90;;;;;;5046799;28;20446;-85
2021/05/02 12:29:18;;;;;;;324.73;260.80;;;11.30;99.90;;;;;;5047336;28;20470;-84
2021/05/02 12:31:50;;;;;;;290.63;260.43;;;;;;;;;;5046602;28;20426;-84
2021/05/02 12:34:18;;;;;;;331.07;254.17;;;;;;;;;;5046028;28;20430;-83
2021/05/02 12:36:44;;;;;;;276.03;252.93;;;;;;;;;;5051894;28;20444;-86
2021/05/02 12:39:14;;;;;;;382.90;264.73;;;;;;;;;;5054872;28;20398;-86
2021/05/02 12:41:42;;;;;;;372.10;262.37;;;11.00;99.90;;;;;;5051851;28;20472;-86